createdAt,value
2018-08-04T00:01:04.159Z,11.18
2018-08-04T00:03:33.552Z,11.73
2018-08-04T00:06:02.048Z,7.97
2018-08-04T00:08:30.992Z,14.80
2018-08-04T00:11:00.333Z,9.58
2018-08-04T00:13:29.012Z,7.47
2018-08-04T00:15:57.714Z,9.48
2018-08-04T00:18:26.339Z,6.50
2018-08-04T00:20:55.113Z,6.40
2018-08-04T00:23:23.911Z,7.65
2018-08-04T00:25:52.502Z,10.25
2018-08-04T00:28:21.284Z,11.97
2018-08-04T00:30:50.072Z,14.38
2018-08-04T00:33:18.649Z,8.83
2018-08-04T00:35:47.807Z,10.85
2018-08-04T00:38:16.353Z,7.80
2018-08-04T00:40:45.523Z,8.53
2018-08-04T00:43:14.221Z,7.15
2018-08-04T00:45:43.455Z,6.78
2018-08-04T00:48:12.004Z,6.40
2018-08-04T00:50:40.425Z,7.20
2018-08-04T00:53:09.298Z,6.83
2018-08-04T00:55:37.789Z,7.47
2018-08-04T00:58:06.526Z,6.37
2018-08-04T01:00:41.820Z,6.10
2018-08-04T01:03:10.419Z,8.45
2018-08-04T01:05:38.957Z,7.37
2018-08-04T01:08:07.433Z,6.50
2018-08-04T01:10:36.332Z,7.83
2018-08-04T01:13:04.838Z,10.13
2018-08-04T01:15:34.172Z,9.50
2018-08-04T01:18:02.758Z,8.90
2018-08-04T01:20:31.287Z,10.28
2018-08-04T01:22:59.874Z,8.40
2018-08-04T01:25:28.347Z,11.83
2018-08-04T01:27:56.929Z,9.45
2018-08-04T01:30:25.463Z,8.55
2018-08-04T01:32:53.958Z,7.60
2018-08-04T01:35:23.129Z,6.42
2018-08-04T01:37:51.867Z,5.65
2018-08-04T01:40:20.624Z,4.75
2018-08-04T01:42:49.517Z,6.85
2018-08-04T01:45:18.005Z,7.22
2018-08-04T01:47:46.985Z,6.97
2018-08-04T01:50:15.516Z,11.18
2018-08-04T01:52:44.116Z,10.53
2018-08-04T01:55:12.837Z,9.83
2018-08-04T01:57:41.348Z,8.50
2018-08-04T02:00:09.817Z,17.00
2018-08-04T02:02:38.540Z,10.90
2018-08-04T02:05:07.493Z,8.17
2018-08-04T02:07:35.947Z,9.23
2018-08-04T02:10:04.420Z,7.05
2018-08-04T02:12:33.157Z,7.10
2018-08-04T02:15:01.805Z,9.23
2018-08-04T02:17:30.257Z,11.25
2018-08-04T02:19:58.798Z,8.10
2018-08-04T02:22:27.205Z,7.20
2018-08-04T02:24:55.778Z,7.90
2018-08-04T02:27:24.274Z,8.88
2018-08-04T02:29:52.712Z,7.67
2018-08-04T02:32:21.517Z,10.10
2018-08-04T02:34:50.066Z,15.27
2018-08-04T02:37:18.468Z,9.87
2018-08-04T02:39:46.990Z,7.97
2018-08-04T02:42:15.287Z,8.50
2018-08-04T02:44:50.299Z,7.10
2018-08-04T02:47:18.745Z,6.73
2018-08-04T02:49:47.309Z,6.47
2018-08-04T02:52:15.752Z,7.77
2018-08-04T02:54:44.391Z,14.03
2018-08-04T02:57:13.367Z,9.40
2018-08-04T02:59:41.956Z,11.77
2018-08-04T03:02:10.449Z,17.17
2018-08-04T03:04:39.015Z,9.03
2018-08-04T03:07:07.508Z,8.37
2018-08-04T03:09:36.059Z,6.77
2018-08-04T03:12:05.113Z,11.67
2018-08-04T03:14:34.221Z,9.57
2018-08-04T03:17:02.805Z,10.70
2018-08-04T03:19:31.355Z,8.93
2018-08-04T03:22:00.495Z,8.97
2018-08-04T03:24:28.996Z,11.03
2018-08-04T03:26:57.524Z,15.67
2018-08-04T03:29:25.992Z,12.00
2018-08-04T03:31:55.001Z,12.43
2018-08-04T03:34:26.487Z,9.60
2018-08-04T03:36:55.049Z,9.70
2018-08-04T03:39:24.355Z,16.13
2018-08-04T03:41:52.784Z,18.90
2018-08-04T03:44:21.317Z,14.50
2018-08-04T03:46:49.748Z,16.10
2018-08-04T03:49:18.353Z,12.63
2018-08-04T03:51:47.428Z,14.93
2018-08-04T03:54:16.042Z,13.17
2018-08-04T03:56:44.429Z,10.67
2018-08-04T03:59:12.890Z,9.30
2018-08-04T04:01:41.695Z,7.37
2018-08-04T04:04:10.154Z,12.10
2018-08-04T04:06:39.373Z,13.13
2018-08-04T04:09:09.354Z,16.03
2018-08-04T04:11:37.931Z,13.53
2018-08-04T04:14:06.368Z,14.30
2018-08-04T04:16:35.023Z,15.03
2018-08-04T04:19:03.713Z,14.37
2018-08-04T04:21:32.339Z,10.57
2018-08-04T04:24:00.865Z,8.77
2018-08-04T04:26:29.471Z,8.17
2018-08-04T04:28:58.449Z,8.27
2018-08-04T04:31:27.665Z,7.13
2018-08-04T04:33:56.102Z,7.57
2018-08-04T04:36:24.565Z,15.53
2018-08-04T04:38:53.057Z,18.63
2018-08-04T04:41:21.725Z,18.27
2018-08-04T04:43:50.595Z,11.70
2018-08-04T04:46:19.062Z,8.87
2018-08-04T04:48:47.870Z,10.40
2018-08-04T04:51:16.470Z,8.87
2018-08-04T04:53:44.594Z,7.83
2018-08-04T04:56:12.991Z,10.57
2018-08-04T04:58:41.568Z,8.27
2018-08-04T05:01:10.176Z,7.63
2018-08-04T05:03:38.617Z,8.43
2018-08-04T05:06:07.189Z,9.47
2018-08-04T05:08:36.091Z,7.53
2018-08-04T05:11:04.746Z,8.97
2018-08-04T05:13:33.296Z,6.77
2018-08-04T05:16:01.854Z,11.27
2018-08-04T05:18:30.304Z,10.83
2018-08-04T05:20:58.767Z,14.87
2018-08-04T05:23:34.557Z,19.33
2018-08-04T05:26:03.296Z,13.27
2018-08-04T05:28:31.801Z,13.47
2018-08-04T05:31:00.483Z,10.27
2018-08-04T05:33:29.025Z,9.83
2018-08-04T05:35:57.462Z,11.80
2018-08-04T05:38:25.951Z,9.53
2018-08-04T05:40:54.816Z,25.53
2018-08-04T05:43:24.359Z,14.80
2018-08-04T05:45:53.534Z,25.83
2018-08-04T05:48:21.974Z,14.73
2018-08-04T05:50:50.817Z,19.97
2018-08-04T05:53:19.253Z,20.87
2018-08-04T05:55:47.778Z,14.13
2018-08-04T05:58:16.522Z,15.20
2018-08-04T06:00:45.163Z,11.47
2018-08-04T06:03:13.644Z,15.30
2018-08-04T06:05:43.356Z,12.67
2018-08-04T06:08:12.009Z,10.83
2018-08-04T06:10:40.748Z,13.70
2018-08-04T06:13:09.268Z,16.73
2018-08-04T06:15:38.153Z,18.13
2018-08-04T06:18:06.730Z,16.87
2018-08-04T06:20:35.827Z,14.23
2018-08-04T06:23:04.262Z,14.47
2018-08-04T06:25:32.772Z,12.90
2018-08-04T06:28:01.320Z,23.40
2018-08-04T06:30:30.002Z,22.23
2018-08-04T06:32:58.418Z,12.60
2018-08-04T06:35:27.065Z,13.22
2018-08-04T06:37:55.694Z,10.65
2018-08-04T06:40:23.919Z,14.75
2018-08-04T06:42:52.455Z,22.30
2018-08-04T06:45:21.081Z,17.60
2018-08-04T06:47:50.578Z,18.30
2018-08-04T06:50:19.065Z,13.30
2018-08-04T06:52:47.951Z,22.90
2018-08-04T06:55:16.692Z,19.73
2018-08-04T06:57:45.185Z,24.57
2018-08-04T07:00:13.711Z,22.37
2018-08-04T07:02:42.858Z,18.85
2018-08-04T07:05:11.610Z,25.15
2018-08-04T07:07:40.208Z,14.18
2018-08-04T07:10:08.904Z,17.35
2018-08-04T07:12:37.458Z,22.65
2018-08-04T07:15:06.293Z,15.43
2018-08-04T07:17:34.797Z,21.23
2018-08-04T07:20:03.257Z,20.32
2018-08-04T07:22:31.808Z,21.85
2018-08-04T07:25:00.782Z,19.10
2018-08-04T07:27:29.212Z,12.95
2018-08-04T07:29:57.462Z,13.48
2018-08-04T07:32:26.003Z,14.50
2018-08-04T07:34:54.822Z,13.72
2018-08-04T07:37:23.228Z,19.98
2018-08-04T07:39:51.658Z,15.70
2018-08-04T07:42:20.216Z,18.65
2018-08-04T07:44:48.658Z,13.88
2018-08-04T07:47:17.185Z,20.82
2018-08-04T07:49:46.318Z,16.50
2018-08-04T07:52:14.762Z,18.80
2018-08-04T07:54:43.168Z,15.55
2018-08-04T07:57:11.667Z,10.25
2018-08-04T07:59:40.189Z,10.05
2018-08-04T08:02:09.067Z,18.92
2018-08-04T08:04:37.623Z,18.73
2018-08-04T08:07:06.402Z,13.93
2018-08-04T08:09:35.093Z,12.82
2018-08-04T08:12:04.003Z,18.25
2018-08-04T08:14:32.712Z,14.63
2018-08-04T08:17:01.119Z,15.20
2018-08-04T08:19:29.763Z,12.58
2018-08-04T08:21:58.287Z,19.37
2018-08-04T08:24:27.076Z,15.88
2018-08-04T08:26:55.784Z,17.85
2018-08-04T08:29:24.265Z,17.07
2018-08-04T08:31:53.100Z,12.63
2018-08-04T08:34:22.632Z,11.15
2018-08-04T08:36:51.684Z,15.45
2018-08-04T08:39:20.292Z,17.50
2018-08-04T08:41:49.058Z,11.73
2018-08-04T08:44:17.784Z,11.83
2018-08-04T08:46:46.647Z,19.85
2018-08-04T08:49:15.495Z,15.90
2018-08-04T08:51:44.836Z,14.23
2018-08-04T08:54:13.553Z,12.93
2018-08-04T08:56:42.507Z,16.87
2018-08-04T08:59:11.043Z,18.23
2018-08-04T09:01:39.782Z,17.98
2018-08-04T09:04:08.445Z,19.82
2018-08-04T09:06:37.021Z,16.40
2018-08-04T09:09:08.136Z,19.65
2018-08-04T09:11:36.758Z,15.80
2018-08-04T09:14:05.244Z,17.07
2018-08-04T09:16:33.605Z,18.12
2018-08-04T09:19:02.185Z,16.77
2018-08-04T09:21:30.818Z,18.07
2018-08-04T09:23:59.256Z,12.75
2018-08-04T09:26:28.634Z,18.82
2018-08-04T09:28:57.126Z,17.35
2018-08-04T09:31:25.806Z,16.10
2018-08-04T09:33:54.321Z,17.70
2018-08-04T09:36:22.755Z,13.40
2018-08-04T09:38:51.248Z,16.57
2018-08-04T09:41:19.709Z,14.00
2018-08-04T09:43:48.404Z,14.53
2018-08-04T09:46:17.042Z,13.45
2018-08-04T09:48:46.501Z,15.45
2018-08-04T09:51:14.978Z,17.80
2018-08-04T09:53:43.840Z,15.45
2018-08-04T09:56:12.427Z,15.60
2018-08-04T09:58:40.958Z,15.85
2018-08-04T10:01:14.865Z,16.48
2018-08-04T10:03:43.876Z,14.33
2018-08-04T10:06:12.351Z,13.72
2018-08-04T10:08:40.781Z,13.45
2018-08-04T10:11:09.369Z,13.08
2018-08-04T10:13:38.319Z,13.62
2018-08-04T10:16:06.934Z,12.00
2018-08-04T10:18:35.679Z,22.55
2018-08-04T10:21:05.558Z,28.95
2018-08-04T10:23:34.740Z,38.30
2018-08-04T10:26:03.795Z,14.65
2018-08-04T10:28:32.212Z,11.73
2018-08-04T10:31:01.301Z,11.68
2018-08-04T10:33:29.773Z,12.58
2018-08-04T10:35:58.335Z,12.18
2018-08-04T10:38:26.844Z,10.75
2018-08-04T10:40:55.379Z,10.82
2018-08-04T10:43:24.597Z,10.95
2018-08-04T10:45:53.684Z,10.98
2018-08-04T10:48:22.353Z,13.58
2018-08-04T10:50:50.794Z,9.90
2018-08-04T10:53:18.956Z,10.58
2018-08-04T10:55:47.555Z,9.70
2018-08-04T10:58:16.826Z,10.50
2018-08-04T11:00:45.333Z,8.15
2018-08-04T11:03:13.908Z,7.22
2018-08-04T11:05:42.817Z,9.58
2018-08-04T11:08:11.310Z,7.35
2018-08-04T11:10:40.007Z,8.25
2018-08-04T11:13:08.841Z,9.45
2018-08-04T11:15:37.416Z,8.73
2018-08-04T11:18:06.077Z,9.20
2018-08-04T11:20:35.030Z,9.00
2018-08-04T11:23:03.490Z,8.58
2018-08-04T11:25:32.052Z,6.70
2018-08-04T11:28:00.989Z,7.45
2018-08-04T11:30:29.430Z,8.70
2018-08-04T11:32:58.010Z,6.42
2018-08-04T11:35:26.560Z,8.15
2018-08-04T11:37:55.103Z,6.78
2018-08-04T11:40:23.744Z,7.17
2018-08-04T11:42:52.191Z,8.78
2018-08-04T11:45:20.627Z,8.95
2018-08-04T11:47:49.077Z,10.48
2018-08-04T11:50:17.673Z,7.58
2018-08-04T11:52:46.739Z,8.03
2018-08-04T11:55:15.343Z,7.83
2018-08-04T11:57:43.827Z,8.18
2018-08-04T12:00:12.469Z,7.30
2018-08-04T12:02:41.566Z,6.58
2018-08-04T12:05:10.074Z,6.85
2018-08-04T12:07:39.581Z,7.58
2018-08-04T12:10:08.380Z,6.72
2018-08-04T12:12:36.896Z,9.03
2018-08-04T12:15:05.815Z,8.28
2018-08-04T12:17:34.381Z,8.90
2018-08-04T12:20:04.302Z,8.13
2018-08-04T12:22:32.483Z,5.90
2018-08-04T12:25:01.115Z,8.80
2018-08-04T12:27:29.567Z,9.40
2018-08-04T12:29:58.646Z,9.18
2018-08-04T12:32:27.818Z,9.78
2018-08-04T12:34:56.254Z,10.70
2018-08-04T12:37:24.760Z,8.18
2018-08-04T12:39:53.430Z,6.97
2018-08-04T12:42:22.891Z,6.28
2018-08-04T12:44:51.984Z,8.00
2018-08-04T12:47:20.529Z,5.85
2018-08-04T12:49:49.012Z,8.78
2018-08-04T12:52:17.587Z,4.35
2018-08-04T12:54:46.249Z,7.22
2018-08-04T12:57:14.761Z,6.53
2018-08-04T12:59:43.579Z,5.90
2018-08-04T13:02:12.529Z,6.20
2018-08-04T13:04:41.094Z,6.45
2018-08-04T13:07:09.750Z,5.35
2018-08-04T13:09:38.210Z,6.78
2018-08-04T13:12:06.884Z,6.62
2018-08-04T13:14:35.358Z,6.65
2018-08-04T13:17:04.005Z,7.12
2018-08-04T13:19:32.575Z,5.70
2018-08-04T13:22:01.226Z,6.67
2018-08-04T13:24:29.687Z,5.80
2018-08-04T13:26:58.278Z,7.12
2018-08-04T13:29:27.059Z,6.95
2018-08-04T13:31:55.590Z,7.05
2018-08-04T13:34:24.330Z,6.85
2018-08-04T13:36:52.945Z,6.08
2018-08-04T13:39:21.452Z,6.90
2018-08-04T13:41:50.264Z,3.87
2018-08-04T13:44:18.949Z,6.55
2018-08-04T13:46:47.469Z,5.75
2018-08-04T13:49:15.930Z,6.53
2018-08-04T13:51:44.479Z,6.53
2018-08-04T13:54:13.016Z,5.60
2018-08-04T13:56:41.479Z,6.12
2018-08-04T13:59:09.920Z,6.70
2018-08-04T14:01:38.379Z,7.60
2018-08-04T14:04:06.967Z,7.47
2018-08-04T14:06:35.405Z,7.58
2018-08-04T14:09:05.332Z,8.63
2018-08-04T14:11:34.183Z,7.83
2018-08-04T14:14:03.589Z,8.45
2018-08-04T14:16:32.246Z,8.53
2018-08-04T14:19:01.409Z,11.97
2018-08-04T14:21:30.803Z,7.78
2018-08-04T14:23:59.431Z,8.00
2018-08-04T14:26:27.953Z,8.13
2018-08-04T14:28:56.465Z,8.25
2018-08-04T14:31:25.203Z,7.75
2018-08-04T14:33:53.915Z,8.90
2018-08-04T14:36:22.441Z,13.00
2018-08-04T14:38:51.496Z,8.48
2018-08-04T14:41:19.965Z,8.15
2018-08-04T14:43:48.532Z,7.05
2018-08-04T14:46:17.571Z,7.62
2018-08-04T14:48:46.278Z,8.95
2018-08-04T14:51:15.912Z,6.95
2018-08-04T14:53:44.354Z,5.80
2018-08-04T14:56:13.605Z,7.40
2018-08-04T14:58:42.102Z,8.05
2018-08-04T15:01:10.846Z,8.20
2018-08-04T15:03:40.011Z,7.67
2018-08-04T15:06:09.250Z,8.48
2018-08-04T15:08:37.715Z,8.53
2018-08-04T15:11:06.817Z,6.80
2018-08-04T15:13:36.132Z,7.70
2018-08-04T15:16:05.496Z,8.93
2018-08-04T15:18:33.995Z,8.65
2018-08-04T15:21:02.491Z,8.83
2018-08-04T15:23:31.075Z,9.10
2018-08-04T15:25:59.661Z,9.10
2018-08-04T15:28:28.382Z,7.85
2018-08-04T15:30:56.888Z,10.10
2018-08-04T15:33:25.354Z,9.70
2018-08-04T15:35:53.934Z,9.63
2018-08-04T15:38:23.898Z,9.73
2018-08-04T15:40:52.357Z,9.78
2018-08-04T15:43:21.243Z,10.40
2018-08-04T15:45:51.000Z,10.03
2018-08-04T15:48:19.540Z,9.73
2018-08-04T15:50:48.062Z,8.75
2018-08-04T15:53:16.785Z,13.85
2018-08-04T15:55:45.434Z,13.65
2018-08-04T15:58:14.085Z,11.65
2018-08-04T16:00:42.703Z,11.18
2018-08-04T16:03:11.258Z,9.63
2018-08-04T16:05:39.862Z,9.33
2018-08-04T16:08:09.133Z,9.43
2018-08-04T16:10:37.677Z,10.50
2018-08-04T16:13:06.132Z,9.00
2018-08-04T16:15:34.757Z,8.93
2018-08-04T16:18:03.301Z,8.78
2018-08-04T16:20:31.962Z,8.90
2018-08-04T16:23:00.753Z,8.95
2018-08-04T16:25:29.257Z,13.20
2018-08-04T16:27:57.943Z,13.13
2018-08-04T16:30:26.822Z,8.30
2018-08-04T16:32:55.757Z,15.00
2018-08-04T16:35:24.190Z,8.75
2018-08-04T16:37:52.924Z,8.38
2018-08-04T16:40:21.609Z,9.23
2018-08-04T16:42:50.138Z,8.45
2018-08-04T16:45:18.643Z,9.10
2018-08-04T16:47:47.153Z,9.70
2018-08-04T16:50:15.712Z,9.70
2018-08-04T16:52:44.538Z,8.98
2018-08-04T16:55:13.415Z,9.20
2018-08-04T16:57:42.069Z,8.78
2018-08-04T17:00:10.976Z,9.25
2018-08-04T17:02:39.573Z,8.10
2018-08-04T17:05:08.354Z,8.50
2018-08-04T17:07:36.837Z,8.50
2018-08-04T17:10:05.364Z,8.23
2018-08-04T17:12:33.857Z,8.60
2018-08-04T17:15:02.421Z,8.80
2018-08-04T17:17:31.225Z,8.43
2018-08-04T17:19:59.816Z,7.70
2018-08-04T17:22:28.892Z,7.90
2018-08-04T17:24:57.392Z,7.78
2018-08-04T17:27:25.944Z,7.53
2018-08-04T17:29:54.534Z,8.58
2018-08-04T17:32:25.298Z,8.85
2018-08-04T17:34:53.731Z,8.28
2018-08-04T17:37:22.283Z,8.45
2018-08-04T17:39:50.798Z,9.50
2018-08-04T17:42:19.882Z,8.43
2018-08-04T17:44:48.317Z,8.98
2018-08-04T17:47:18.065Z,8.50
2018-08-04T17:49:46.757Z,9.33
2018-08-04T17:52:15.515Z,9.18
2018-08-04T17:54:44.130Z,8.85
2018-08-04T17:57:12.805Z,10.45
2018-08-04T17:59:42.009Z,10.40
2018-08-04T18:02:10.434Z,9.48
2018-08-04T18:04:39.187Z,9.23
2018-08-04T18:07:07.795Z,9.30
2018-08-04T18:09:36.233Z,10.28
2018-08-04T18:12:04.864Z,10.18
2018-08-04T18:14:33.929Z,9.93
2018-08-04T18:17:02.381Z,8.83
2018-08-04T18:19:30.899Z,8.98
2018-08-04T18:21:59.384Z,9.70
2018-08-04T18:24:27.837Z,11.00
2018-08-04T18:26:56.884Z,10.60
2018-08-04T18:29:25.440Z,10.75
2018-08-04T18:31:53.967Z,9.50
2018-08-04T18:34:22.460Z,8.68
2018-08-04T18:36:51.145Z,7.33
2018-08-04T18:39:19.691Z,9.15
2018-08-04T18:41:48.221Z,8.75
2018-08-04T18:44:16.782Z,6.20
2018-08-04T18:46:45.606Z,8.25
2018-08-04T18:49:14.331Z,6.15
2018-08-04T18:51:42.881Z,10.63
2018-08-04T18:54:12.110Z,7.37
2018-08-04T18:56:40.601Z,11.38
2018-08-04T18:59:09.958Z,7.40
2018-08-04T19:01:38.442Z,5.92
2018-08-04T19:04:06.894Z,9.83
2018-08-04T19:06:35.813Z,10.70
2018-08-04T19:09:06.829Z,9.58
2018-08-04T19:11:35.490Z,6.70
2018-08-04T19:14:03.909Z,8.23
2018-08-04T19:16:32.445Z,7.45
2018-08-04T19:19:00.974Z,7.30
2018-08-04T19:21:29.798Z,7.30
2018-08-04T19:23:58.276Z,10.50
2018-08-04T19:26:26.755Z,13.13
2018-08-04T19:28:55.234Z,12.65
2018-08-04T19:31:24.295Z,9.93
2018-08-04T19:33:53.136Z,9.30
2018-08-04T19:36:21.826Z,9.55
2018-08-04T19:38:50.660Z,12.03
2018-08-04T19:41:19.178Z,10.82
2018-08-04T19:43:47.681Z,8.98
2018-08-04T19:46:16.701Z,6.72
2018-08-04T19:48:45.213Z,5.65
2018-08-04T19:51:13.797Z,6.62
2018-08-04T19:53:42.329Z,7.58
2018-08-04T19:56:10.793Z,6.80
2018-08-04T19:58:39.328Z,12.37
2018-08-04T20:01:07.824Z,13.00
2018-08-04T20:03:36.326Z,7.40
2018-08-04T20:06:05.695Z,6.17
2018-08-04T20:08:34.100Z,6.05
2018-08-04T20:11:03.190Z,8.40
2018-08-04T20:13:31.730Z,7.97
2018-08-04T20:16:00.176Z,11.05
2018-08-04T20:18:28.709Z,7.83
2018-08-04T20:20:57.958Z,12.13
2018-08-04T20:23:26.402Z,8.18
2018-08-04T20:25:55.507Z,10.85
2018-08-04T20:28:24.116Z,9.15
2018-08-04T20:30:52.608Z,13.05
2018-08-04T20:33:21.240Z,8.88
2018-08-04T20:35:49.701Z,11.10
2018-08-04T20:38:18.636Z,8.53
2018-08-04T20:40:47.640Z,10.03
2018-08-04T20:43:16.194Z,8.20
2018-08-04T20:46:01.506Z,7.22
2018-08-04T20:48:30.098Z,8.43
2018-08-04T20:51:09.904Z,7.15
2018-08-04T20:53:50.854Z,9.98
2018-08-04T20:56:20.115Z,6.67
2018-08-04T20:58:55.434Z,6.33
2018-08-04T21:01:46.665Z,5.60
2018-08-04T21:04:14.878Z,10.58
2018-08-04T21:06:43.448Z,7.62
2018-08-04T21:09:12.182Z,7.08
2018-08-04T21:11:50.870Z,6.95
2018-08-04T21:14:20.821Z,8.13
2018-08-04T21:16:50.413Z,15.93
2018-08-04T21:19:20.461Z,13.72
2018-08-04T21:21:49.146Z,11.73
2018-08-04T21:24:19.163Z,11.33
2018-08-04T21:26:48.558Z,8.78
2018-08-04T21:29:17.256Z,16.50
2018-08-04T21:31:45.644Z,8.70
2018-08-04T21:34:14.217Z,13.83
2018-08-04T21:36:44.077Z,10.95
2018-08-04T21:39:13.706Z,8.60
2018-08-04T21:41:43.729Z,9.73
2018-08-04T21:44:12.600Z,9.35
2018-08-04T21:46:44.325Z,11.43
2018-08-04T21:49:13.301Z,9.58
2018-08-04T21:51:44.165Z,7.72
2018-08-04T21:54:13.705Z,7.10
2018-08-04T21:56:42.932Z,11.50
2018-08-04T21:59:11.736Z,15.70
2018-08-04T22:01:44.601Z,14.30
2018-08-04T22:04:13.252Z,10.50
2018-08-04T22:06:54.095Z,15.30
2018-08-04T22:09:24.583Z,15.43
2018-08-04T22:11:53.280Z,15.40
2018-08-04T22:14:21.780Z,15.03
2018-08-04T22:16:50.442Z,10.43
2018-08-04T22:19:19.171Z,8.38
2018-08-04T22:21:47.766Z,14.73
2018-08-04T22:24:16.692Z,11.68
2018-08-04T22:26:45.202Z,9.35
2018-08-04T22:29:13.832Z,7.83
2018-08-04T22:31:42.638Z,12.13
2018-08-04T22:34:11.273Z,11.05
2018-08-04T22:36:39.852Z,8.60
2018-08-04T22:39:08.721Z,11.75
2018-08-04T22:41:37.168Z,10.78
2018-08-04T22:44:05.873Z,8.05
2018-08-04T22:46:34.296Z,7.75
2018-08-04T22:49:02.940Z,15.20
2018-08-04T22:51:31.956Z,7.58
2018-08-04T22:54:00.452Z,8.95
2018-08-04T22:56:28.905Z,8.58
2018-08-04T22:58:57.614Z,7.72
2018-08-04T23:01:25.745Z,7.33
2018-08-04T23:03:54.275Z,6.00
2018-08-04T23:06:22.516Z,6.62
2018-08-04T23:08:50.942Z,6.45
2018-08-04T23:11:19.402Z,5.67
2018-08-04T23:13:47.997Z,12.25
2018-08-04T23:16:16.518Z,12.98
2018-08-04T23:18:45.132Z,9.73
2018-08-04T23:21:13.747Z,9.63
2018-08-04T23:23:42.843Z,9.05
2018-08-04T23:26:10.960Z,7.15
2018-08-04T23:28:39.504Z,6.75
2018-08-04T23:31:08.056Z,7.12
2018-08-04T23:33:37.390Z,8.78
2018-08-04T23:36:06.013Z,7.72
2018-08-04T23:38:34.442Z,7.42
2018-08-04T23:41:02.985Z,5.95
2018-08-04T23:43:32.203Z,5.70
2018-08-04T23:46:00.734Z,7.30
2018-08-04T23:48:29.411Z,6.30
2018-08-04T23:50:58.136Z,5.35
2018-08-04T23:53:26.573Z,5.65
2018-08-04T23:55:55.261Z,5.60
2018-08-04T23:58:23.738Z,5.53
